Time;durP1;ratioP1;P1;durP2;ratioP2;P2;SDS_P1;SDS_P2;PMS_P1;PMS_P2;Temp;Humidity;BMP_temperature;BMP_pressure;BME280_temperature;BME280_humidity;BME280_pressure;Samples;Min_cycle;Max_cycle;Signal;HPM_P1;HPM_P2
2023/11/20 00:01:50;;;;;;;3.30;1.40;;;22.70;57.00;;;;;;4957430;28;86591;-94
2023/11/20 00:04:15;;;;;;;3.35;1.55;;;22.60;56.90;;;;;;4955747;28;89621;-92
2023/11/20 00:06:41;;;;;;;2.85;1.38;;;22.60;56.90;;;;;;4956011;28;89405;-92
2023/11/20 00:09:10;;;;;;;3.72;1.60;;;22.60;56.80;;;;;;4947740;28;89858;-93
2023/11/20 00:11:35;;;;;;;4.32;1.60;;;22.60;57.00;;;;;;4956280;28;86824;-93
2023/11/20 00:14:01;;;;;;;2.53;1.50;;;22.60;57.00;;;;;;4954902;28;87795;-94
2023/11/20 00:16:27;;;;;;;4.15;1.70;;;22.60;57.00;;;;;;4954826;28;93098;-93
2023/11/20 00:18:56;;;;;;;3.08;1.80;;;22.60;57.00;;;;;;4940654;28;88514;-94
2023/11/20 00:21:21;;;;;;;5.25;1.98;;;22.50;57.10;;;;;;4931184;28;86940;-93
2023/11/20 00:23:47;;;;;;;3.67;1.55;;;22.50;56.90;;;;;;4940360;28;88939;-94
2023/11/20 00:26:15;;;;;;;4.45;2.00;;;22.50;57.10;;;;;;4939837;28;89057;-92
2023/11/20 00:28:44;;;;;;;3.80;1.38;;;22.50;57.00;;;;;;4939700;28;87606;-92
2023/11/20 00:31:16;;;;;;;3.78;1.45;;;22.50;56.90;;;;;;4940211;28;87610;-93
2023/11/20 00:33:42;;;;;;;4.97;1.80;;;22.50;57.00;;;;;;4924107;28;87055;-92
2023/11/20 00:36:12;;;;;;;3.55;1.33;;;22.50;57.00;;;;;;4957089;28;88063;-92
2023/11/20 00:38:39;;;;;;;3.63;1.35;;;22.40;57.10;;;;;;4939707;28;89513;-93
2023/11/20 00:41:04;;;;;;;5.47;2.03;;;22.40;56.90;;;;;;4922865;28;88744;-93
2023/11/20 00:43:31;;;;;;;4.38;1.48;;;22.40;56.90;;;;;;4938792;28;87834;-92
2023/11/20 00:45:57;;;;;;;2.50;1.35;;;22.40;57.00;;;;;;4936693;28;88893;-93
2023/11/20 00:48:23;;;;;;;3.65;1.40;;;22.40;57.00;;;;;;4939376;28;88434;-92
2023/11/20 00:50:56;;;;;;;3.75;1.55;;;22.40;57.00;;;;;;4941084;28;87160;-93
2023/11/20 00:53:22;;;;;;;4.03;1.20;;;22.40;57.00;;;;;;4921163;28;91926;-95
2023/11/20 00:55:51;;;;;;;2.58;1.50;;;22.30;57.10;;;;;;4936773;28;89345;-91
2023/11/20 00:58:17;;;;;;;2.85;1.38;;;22.30;57.10;;;;;;4936687;28;90157;-93
2023/11/20 01:00:42;;;;;;;2.53;1.30;;;22.30;57.10;;;;;;4938174;28;87918;-93
2023/11/20 01:03:08;;;;;;;2.50;1.30;;;22.30;57.00;;;;;;4936813;28;90876;-94
2023/11/20 01:05:33;;;;;;;2.88;1.30;;;22.30;57.00;;;;;;4938927;28;91047;-92
2023/11/20 01:07:59;;;;;;;4.55;1.60;;;22.30;57.10;;;;;;4934354;28;90200;-93
2023/11/20 01:10:25;;;;;;;3.00;1.17;;;22.30;57.20;;;;;;4935883;28;87770;-94
2023/11/20 01:12:51;;;;;;;3.17;1.40;;;22.20;57.00;;;;;;4922824;28;87059;-93
2023/11/20 01:15:16;;;;;;;2.75;1.50;;;22.20;57.00;;;;;;4937726;28;87526;-93
2023/11/20 01:17:42;;;;;;;2.30;1.08;;;22.20;57.20;;;;;;4937219;28;90191;-93
2023/11/20 01:20:17;;;;;;;2.67;1.20;;;22.20;57.10;;;;;;4936581;28;87001;-92
2023/11/20 01:22:42;;;;;;;4.05;1.83;;;22.20;57.00;;;;;;4936527;28;86878;-92
2023/11/20 01:25:08;;;;;;;4.03;1.60;;;22.20;57.10;;;;;;4935705;28;90251;-92
2023/11/20 01:27:34;;;;;;;4.57;1.55;;;22.20;57.20;;;;;;4936282;28;88770;-93
2023/11/20 01:30:09;;;;;;;3.33;1.55;;;22.20;57.20;;;;;;4936588;28;88463;-93
2023/11/20 01:32:35;;;;;;;3.65;1.20;;;22.20;57.20;;;;;;4937704;28;87894;-93
2023/11/20 01:35:01;;;;;;;3.25;1.38;;;22.20;57.40;;;;;;4950846;28;88946;-93
2023/11/20 01:37:26;;;;;;;2.63;1.20;;;22.10;57.40;;;;;;4936712;28;89639;-93
2023/11/20 01:39:52;;;;;;;2.50;1.00;;;22.10;57.30;;;;;;4936908;28;87647;-93
2023/11/20 01:42:19;;;;;;;2.85;1.13;;;22.10;57.30;;;;;;4935363;28;88890;-93
2023/11/20 01:44:45;;;;;;;3.03;1.42;;;22.10;57.20;;;;;;4936670;28;91514;-92
2023/11/20 01:47:11;;;;;;;3.28;1.40;;;22.10;57.30;;;;;;4935666;28;89602;-93
2023/11/20 01:49:39;;;;;;;2.28;1.20;;;22.10;57.40;;;;;;4936004;28;88169;-94
2023/11/20 01:52:06;;;;;;;5.18;1.52;;;22.10;57.40;;;;;;4935616;28;87446;-94
2023/11/20 01:54:32;;;;;;;2.53;1.10;;;22.10;57.30;;;;;;4950173;28;90045;-93
2023/11/20 01:56:59;;;;;;;4.10;1.35;;;22.10;57.50;;;;;;4934836;28;91897;-94
2023/11/20 01:59:26;;;;;;;3.20;1.33;;;22.00;57.50;;;;;;4936702;28;87393;-94
2023/11/20 02:01:55;;;;;;;4.63;1.70;;;22.10;57.60;;;;;;4935109;28;89165;-94
2023/11/20 02:04:22;;;;;;;3.13;1.35;;;22.00;57.30;;;;;;4934911;28;90080;-91
2023/11/20 02:06:49;;;;;;;2.22;1.17;;;22.00;57.20;;;;;;4936516;28;87251;-93
2023/11/20 02:09:16;;;;;;;3.60;1.33;;;22.00;57.30;;;;;;4936483;28;87276;-93
2023/11/20 02:11:52;;;;;;;2.28;1.10;;;22.00;57.20;;;;;;4936657;28;88637;-92
2023/11/20 02:14:18;;;;;;;3.65;1.67;;;22.00;57.40;;;;;;4948520;28;92248;-92
2023/11/20 02:16:44;;;;;;;2.78;1.33;;;22.00;57.20;;;;;;4926094;28;92447;-93
2023/11/20 02:19:13;;;;;;;3.88;1.40;;;22.00;57.30;;;;;;4933600;28;88473;-92
2023/11/20 02:21:40;;;;;;;2.10;0.95;;;21.90;57.40;;;;;;4935955;28;88978;-92
2023/11/20 02:24:06;;;;;;;3.05;1.40;;;22.00;57.50;;;;;;4937273;28;90911;-93
2023/11/20 02:27:01;;;;;;;3.00;1.48;;;21.90;57.40;;;;;;4938904;28;88974;-92
2023/11/20 02:29:31;;;;;;;2.55;1.02;;;21.90;57.30;;;;;;4939909;28;87217;-92
2023/11/20 02:31:56;;;;;;;2.07;0.93;;;21.90;57.30;;;;;;4938275;28;88745;-93
2023/11/20 02:34:22;;;;;;;2.70;1.38;;;21.90;57.40;;;;;;4937143;28;88638;-93
2023/11/20 02:36:48;;;;;;;2.17;1.02;;;21.90;57.40;;;;;;4938600;28;89787;-93
2023/11/20 02:39:14;;;;;;;2.55;1.35;;;21.90;57.30;;;;;;4937694;28;87542;-93
2023/11/20 02:41:43;;;;;;;3.42;1.38;;;21.90;57.30;;;;;;4938504;28;90084;-94
2023/11/20 02:44:09;;;;;;;3.55;1.50;;;21.90;57.40;;;;;;4936575;28;91706;-92
2023/11/20 02:46:35;;;;;;;2.47;1.08;;;21.90;57.50;;;;;;4939227;28;90948;-93
2023/11/20 02:49:00;;;;;;;1.55;1.00;;;21.90;57.50;;;;;;4936743;28;87051;-93
2023/11/20 02:51:27;;;;;;;2.83;1.27;;;21.90;57.50;;;;;;4936461;28;90245;-94
2023/11/20 02:53:53;;;;;;;3.65;1.40;;;21.80;57.60;;;;;;4937850;28;88861;-93
2023/11/20 02:56:19;;;;;;;3.03;0.93;;;21.80;57.40;;;;;;4938029;28;88549;-92
2023/11/20 02:58:45;;;;;;;1.95;1.05;;;21.80;57.50;;;;;;4937836;28;87575;-92
2023/11/20 03:01:11;;;;;;;1.45;1.10;;;21.80;57.60;;;;;;4937129;28;87405;-93
2023/11/20 03:03:37;;;;;;;2.53;1.17;;;21.80;57.40;;;;;;4937832;28;91243;-92
2023/11/20 03:06:09;;;;;;;2.15;1.20;;;21.80;57.50;;;;;;4954822;28;89964;-92
2023/11/20 03:08:34;;;;;;;2.55;1.30;;;21.80;57.50;;;;;;4938668;28;88290;-95
2023/11/20 03:11:00;;;;;;;2.50;1.08;;;21.80;57.50;;;;;;4936631;28;89006;-93
2023/11/20 03:13:26;;;;;;;2.35;1.10;;;21.80;57.50;;;;;;4936282;28;91166;-93
2023/11/20 03:15:51;;;;;;;3.10;1.27;;;21.80;57.60;;;;;;4934773;28;88493;-93
2023/11/20 03:18:18;;;;;;;3.97;1.30;;;21.80;57.50;;;;;;4937906;28;87335;-94
2023/11/20 03:20:44;;;;;;;2.35;1.02;;;21.70;57.60;;;;;;4938470;28;87710;-93
2023/11/20 03:23:13;;;;;;;2.67;1.30;;;21.70;58.10;;;;;;4937052;28;91700;-93
2023/11/20 03:25:39;;;;;;;2.42;1.30;;;21.70;57.60;;;;;;4936872;28;88626;-93
2023/11/20 03:28:04;;;;;;;3.20;1.38;;;21.70;57.60;;;;;;4920672;28;87401;-93
2023/11/20 03:30:32;;;;;;;1.77;0.90;;;21.70;57.70;;;;;;4936136;28;88962;-93
2023/11/20 03:32:58;;;;;;;3.45;1.35;;;21.80;57.70;;;;;;4935737;28;91287;-93
2023/11/20 03:35:24;;;;;;;2.72;1.25;;;21.70;57.60;;;;;;4938700;28;88085;-93
2023/11/20 03:37:49;;;;;;;2.47;1.15;;;21.70;57.70;;;;;;4936608;28;87709;-92
2023/11/20 03:40:15;;;;;;;2.92;1.15;;;21.70;57.60;;;;;;4936701;28;87841;-93
2023/11/20 03:42:41;;;;;;;2.47;1.25;;;21.70;57.60;;;;;;4936802;28;89022;-93
2023/11/20 03:45:07;;;;;;;3.45;1.40;;;21.70;57.50;;;;;;4937303;28;87484;-94
2023/11/20 03:47:35;;;;;;;2.40;1.00;;;21.70;57.40;;;;;;4937670;28;87308;-93
2023/11/20 03:50:01;;;;;;;1.95;1.25;;;21.70;57.60;;;;;;4936146;28;87626;-93
2023/11/20 03:52:27;;;;;;;1.65;0.80;;;21.70;57.60;;;;;;4937834;28;88083;-93
2023/11/20 03:54:53;;;;;;;3.17;1.35;;;21.70;57.50;;;;;;4935924;28;90457;-92
2023/11/20 03:57:18;;;;;;;1.52;1.05;;;21.70;57.50;;;;;;4935951;28;88262;-92
2023/11/20 03:59:44;;;;;;;3.40;1.20;;;21.70;57.60;;;;;;4936708;28;88637;-93
2023/11/20 04:02:10;;;;;;;1.92;0.90;;;21.60;57.40;;;;;;4936298;28;88048;-92
2023/11/20 04:04:35;;;;;;;1.67;1.10;;;21.60;57.70;;;;;;4918270;28;88979;-94
2023/11/20 04:07:01;;;;;;;2.13;1.20;;;21.60;57.50;;;;;;4936612;28;87488;-92
2023/11/20 04:09:27;;;;;;;1.83;1.00;;;21.60;57.60;;;;;;4937354;28;88652;-94
2023/11/20 04:11:53;;;;;;;3.33;1.13;;;21.60;57.60;;;;;;4937874;28;91632;-91
2023/11/20 04:14:18;;;;;;;2.30;1.20;;;21.60;57.60;;;;;;4937490;28;88615;-92
2023/11/20 04:16:45;;;;;;;2.40;0.90;;;21.60;57.50;;;;;;4936258;28;87396;-93
2023/11/20 04:19:13;;;;;;;2.30;1.20;;;21.60;57.50;;;;;;4936119;28;89889;-94
2023/11/20 04:21:39;;;;;;;3.65;1.48;;;21.60;57.40;;;;;;4935520;28;91460;-93
2023/11/20 04:24:05;;;;;;;1.58;0.90;;;21.60;57.60;;;;;;4936909;28;91452;-93
2023/11/20 04:26:31;;;;;;;2.72;0.98;;;21.60;57.50;;;;;;4937728;28;87613;-92
2023/11/20 04:28:56;;;;;;;1.38;0.80;;;21.60;57.70;;;;;;4936485;28;88364;-93
2023/11/20 04:31:22;;;;;;;2.78;1.25;;;21.60;57.60;;;;;;4936385;28;89062;-93
2023/11/20 04:33:48;;;;;;;1.67;1.02;;;21.60;57.60;;;;;;4937856;28;88235;-93
2023/11/20 04:36:14;;;;;;;1.85;0.90;;;21.60;57.60;;;;;;4938050;28;87411;-95
2023/11/20 04:38:40;;;;;;;2.47;1.38;;;21.50;57.60;;;;;;4938105;28;90015;-93
2023/11/20 04:41:05;;;;;;;2.10;1.10;;;21.60;57.60;;;;;;4935054;28;90356;-92
2023/11/20 04:43:31;;;;;;;3.50;1.45;;;21.50;58.20;;;;;;4935618;28;88293;-93
2023/11/20 04:45:59;;;;;;;2.50;0.98;;;21.50;57.60;;;;;;4936146;28;89126;-92
2023/11/20 04:48:24;;;;;;;1.90;1.00;;;21.50;57.50;;;;;;4935859;28;88863;-93
2023/11/20 04:50:50;;;;;;;1.73;0.80;;;21.50;57.50;;;;;;4937455;28;91341;-94
2023/11/20 04:53:16;;;;;;;1.02;0.68;;;21.50;57.50;;;;;;4936655;28;90973;-92
2023/11/20 04:55:41;;;;;;;2.92;1.30;;;21.50;57.50;;;;;;4930449;28;87580;-93
2023/11/20 04:58:08;;;;;;;1.60;0.90;;;21.50;57.50;;;;;;4938022;28;88283;-92
2023/11/20 05:00:34;;;;;;;2.00;0.85;;;21.50;57.90;;;;;;4937375;28;90775;-93
2023/11/20 05:03:00;;;;;;;0.98;0.80;;;21.50;57.70;;;;;;4938464;28;88611;-93
2023/11/20 05:05:26;;;;;;;2.10;1.20;;;21.50;57.70;;;;;;4938428;28;86942;-93
2023/11/20 05:07:52;;;;;;;1.20;0.80;;;21.50;57.50;;;;;;4928805;28;88770;-92
2023/11/20 05:10:17;;;;;;;2.13;0.93;;;21.50;57.70;;;;;;4936302;28;88894;-93
2023/11/20 05:12:43;;;;;;;2.20;0.95;;;21.50;57.60;;;;;;4937700;28;88528;-92
2023/11/20 05:15:11;;;;;;;1.48;0.88;;;21.50;57.60;;;;;;4936898;28;87744;-93
2023/11/20 05:17:36;;;;;;;1.60;0.90;;;21.50;57.50;;;;;;4936960;28;87856;-92
2023/11/20 05:20:02;;;;;;;1.27;0.80;;;21.50;57.60;;;;;;4935520;28;90977;-94
2023/11/20 05:22:28;;;;;;;1.65;0.93;;;21.40;57.50;;;;;;4935044;28;89993;-92
2023/11/20 05:24:54;;;;;;;1.75;0.95;;;21.40;57.50;;;;;;4936599;28;87400;-92
2023/11/20 05:27:20;;;;;;;1.38;1.00;;;21.40;57.50;;;;;;4937800;28;89225;-93
2023/11/20 05:29:52;;;;;;;2.03;1.20;;;21.40;57.70;;;;;;4938513;28;90143;-94
2023/11/20 05:32:18;;;;;;;1.55;0.80;;;21.40;57.70;;;;;;4936496;28;93023;-93
2023/11/20 05:34:44;;;;;;;2.55;1.35;;;21.40;57.50;;;;;;4937012;28;88403;-94
2023/11/20 05:37:09;;;;;;;2.15;0.93;;;21.40;57.60;;;;;;4935469;28;90387;-92
2023/11/20 05:39:35;;;;;;;1.83;1.10;;;21.40;57.70;;;;;;4936841;28;87935;-94
2023/11/20 05:42:02;;;;;;;1.55;0.85;;;21.40;57.50;;;;;;4935542;28;90791;-93
2023/11/20 05:44:28;;;;;;;1.15;0.85;;;21.30;57.60;;;;;;4934855;28;87524;-93
2023/11/20 05:46:54;;;;;;;1.90;1.05;;;21.40;57.60;;;;;;4936655;28;89865;-93
2023/11/20 05:49:19;;;;;;;1.42;0.70;;;21.40;57.60;;;;;;4936772;28;89689;-93
2023/11/20 05:51:45;;;;;;;0.80;0.75;;;21.40;57.50;;;;;;4937943;28;88908;-93
2023/11/20 05:54:11;;;;;;;2.25;1.00;;;21.40;57.60;;;;;;4937093;28;87360;-93
2023/11/20 05:56:36;;;;;;;1.27;0.70;;;21.40;57.60;;;;;;4940427;28;88802;-94
2023/11/20 05:59:03;;;;;;;1.38;0.75;;;21.40;57.40;;;;;;4939038;28;91802;-93
2023/11/20 06:01:38;;;;;;;2.80;1.08;;;21.30;57.60;;;;;;4940637;28;89750;-93
2023/11/20 06:04:08;;;;;;;0.68;0.60;;;21.30;57.70;;;;;;4940549;28;87072;-91
2023/11/20 06:06:38;;;;;;;2.95;0.88;;;21.30;57.60;;;;;;4939863;28;90440;-93
2023/11/20 06:09:10;;;;;;;;;;;21.30;57.70;;;;;;4940954;28;88350;-94
2023/11/20 06:11:36;;;;;;;2.30;1.00;;;21.30;57.60;;;;;;4940398;28;90297;-92
2023/11/20 06:14:03;;;;;;;1.98;0.82;;;21.30;57.60;;;;;;4937301;28;87448;-90
2023/11/20 06:16:29;;;;;;;2.45;1.10;;;21.30;58.30;;;;;;4936878;28;88816;-95
2023/11/20 06:18:56;;;;;;;1.58;1.13;;;21.30;58.30;;;;;;4939218;28;89638;-93
2023/11/20 06:21:22;;;;;;;2.67;1.15;;;21.30;58.20;;;;;;4937081;28;90483;-94
2023/11/20 06:23:48;;;;;;;1.10;1.00;;;21.40;58.10;;;;;;4938386;28;89264;-92
2023/11/20 06:26:14;;;;;;;1.60;1.00;;;21.40;58.10;;;;;;4938163;28;90488;-91
2023/11/20 06:28:44;;;;;;;1.40;1.30;;;21.40;58.10;;;;;;4939332;28;89161;-92
2023/11/20 06:31:11;;;;;;;1.27;1.00;;;21.40;58.20;;;;;;4953909;28;89541;-90
2023/11/20 06:33:37;;;;;;;1.25;1.10;;;21.50;58.10;;;;;;4938713;28;87495;-90
2023/11/20 06:36:03;;;;;;;2.70;1.63;;;21.50;58.30;;;;;;4938348;28;90235;-90
2023/11/20 06:38:29;;;;;;;2.63;1.60;;;21.50;58.40;;;;;;4938096;28;89089;-90
2023/11/20 06:40:56;;;;;;;2.25;1.50;;;21.50;58.30;;;;;;4939266;28;89957;-89
2023/11/20 06:43:22;;;;;;;2.65;1.42;;;21.50;58.40;;;;;;4940603;28;87577;-89
2023/11/20 06:45:56;;;;;;;4.18;1.70;;;21.50;58.40;;;;;;4938758;28;88501;-92
2023/11/20 06:48:21;;;;;;;1.92;1.40;;;21.50;58.40;;;;;;4939282;28;91278;-89
2023/11/20 06:50:47;;;;;;;1.40;1.20;;;21.50;58.40;;;;;;4940982;28;90218;-91
2023/11/20 06:53:14;;;;;;;4.28;1.58;;;21.50;58.50;;;;;;4940144;28;87041;-91
2023/11/20 06:55:42;;;;;;;2.65;1.63;;;21.50;58.60;;;;;;4938899;28;87637;-89
2023/11/20 06:58:07;;;;;;;4.60;1.50;;;21.50;58.40;;;;;;4939524;28;89013;-91
2023/11/20 07:00:34;;;;;;;2.08;1.42;;;21.50;58.60;;;;;;4937015;28;89541;-92
2023/11/20 07:02:59;;;;;;;2.00;1.40;;;21.50;58.40;;;;;;4939609;28;87083;-90
2023/11/20 07:05:25;;;;;;;1.67;1.30;;;21.50;58.60;;;;;;4940140;28;89558;-91
2023/11/20 07:07:52;;;;;;;2.78;1.50;;;21.50;58.40;;;;;;4935608;28;88787;-90
2023/11/20 07:10:23;;;;;;;2.45;1.40;;;21.50;58.40;;;;;;4938641;28;89697;-89
2023/11/20 07:12:55;;;;;;;3.03;1.65;;;21.50;58.30;;;;;;4937828;28;88659;-89
2023/11/20 07:15:22;;;;;;;1.98;1.20;;;21.50;58.40;;;;;;4953800;28;89417;-90
2023/11/20 07:17:49;;;;;;;2.53;1.50;;;21.50;58.40;;;;;;4937806;28;89841;-91
2023/11/20 07:20:15;;;;;;;1.95;1.60;;;21.50;58.20;;;;;;4936306;28;89872;-89
2023/11/20 07:22:41;;;;;;;2.50;1.42;;;21.50;58.40;;;;;;4937055;28;87657;-91
2023/11/20 07:25:07;;;;;;;1.55;1.17;;;21.50;58.20;;;;;;4936902;28;89340;-89
2023/11/20 07:27:36;;;;;;;1.90;1.23;;;21.50;58.20;;;;;;4937208;28;89078;-89
2023/11/20 07:30:05;;;;;;;1.75;1.05;;;21.50;58.20;;;;;;4936984;28;89643;-91
2023/11/20 07:32:30;;;;;;;3.13;1.30;;;21.50;58.10;;;;;;4936174;28;87791;-90
2023/11/20 07:34:56;;;;;;;3.67;1.35;;;21.50;57.50;;;;;;4936142;28;89873;-91
2023/11/20 07:37:22;;;;;;;3.97;1.50;;;21.50;57.00;;;;;;4935508;28;91204;-94
2023/11/20 07:39:47;;;;;;;3.22;1.50;;;21.50;56.90;;;;;;4940618;28;89504;-91
2023/11/20 07:42:14;;;;;;;5.18;1.70;;;21.50;56.60;;;;;;4935829;28;88802;-90
2023/11/20 07:44:40;;;;;;;3.08;1.65;;;21.50;57.30;;;;;;4936420;28;87253;-90
2023/11/20 07:47:06;;;;;;;3.17;1.40;;;21.50;57.30;;;;;;4933588;28;90548;-91
2023/11/20 07:49:31;;;;;;;5.22;1.55;;;21.50;57.30;;;;;;4935333;28;92572;-89
2023/11/20 07:51:58;;;;;;;4.00;1.60;;;21.50;57.40;;;;;;4932673;28;87043;-87
2023/11/20 07:54:25;;;;;;;4.57;1.70;;;21.50;57.50;;;;;;4930122;28;87806;-87
2023/11/20 07:56:51;;;;;;;5.60;1.98;;;21.60;57.00;;;;;;4934576;28;90071;-87
2023/11/20 07:59:17;;;;;;;6.50;2.13;;;21.60;56.60;;;;;;4935966;28;94253;-90
2023/11/20 08:01:43;;;;;;;5.80;1.92;;;21.50;56.70;;;;;;4938200;28;88695;-88
2023/11/20 08:04:11;;;;;;;5.72;2.00;;;21.50;57.10;;;;;;4937316;28;89031;-88
2023/11/20 08:06:37;;;;;;;6.97;2.33;;;21.60;57.60;;;;;;4936885;28;88559;-89
2023/11/20 08:09:02;;;;;;;7.07;2.72;;;21.60;58.00;;;;;;4934527;28;89496;-89
2023/11/20 08:11:28;;;;;;;11.23;2.78;;;21.50;58.50;;;;;;4937327;28;87361;-89
2023/11/20 08:13:54;;;;;;;10.48;3.17;;;21.50;58.30;;;;;;4937718;28;89360;-88
2023/11/20 08:16:20;;;;;;;7.47;2.67;;;21.60;59.10;;;;;;4930574;28;88602;-88
2023/11/20 08:18:45;;;;;;;8.07;2.88;;;21.60;59.40;;;;;;4938000;28;87323;-88
2023/11/20 08:21:11;;;;;;;10.38;3.40;;;21.50;59.20;;;;;;4937113;28;87084;-87
2023/11/20 08:23:37;;;;;;;10.18;3.45;;;21.50;59.50;;;;;;4935799;28;90279;-90
2023/11/20 08:26:04;;;;;;;9.30;2.47;;;21.50;59.30;;;;;;4930188;28;89087;-89
2023/11/20 08:28:30;;;;;;;12.40;3.15;;;21.60;59.10;;;;;;4935909;28;90133;-90
2023/11/20 08:30:56;;;;;;;13.38;3.38;;;21.60;59.10;;;;;;4934839;28;87630;-90
2023/11/20 08:33:21;;;;;;;7.07;2.80;;;21.50;58.80;;;;;;4938302;28;87502;-87
2023/11/20 08:35:47;;;;;;;8.10;3.15;;;21.60;59.20;;;;;;4936382;28;89778;-88
2023/11/20 08:38:13;;;;;;;5.28;2.65;;;21.50;59.10;;;;;;4936299;28;89060;-87
2023/11/20 08:40:40;;;;;;;7.70;3.00;;;21.60;58.90;;;;;;4936693;28;87501;-89
2023/11/20 08:43:06;;;;;;;8.73;3.10;;;21.60;59.40;;;;;;4935805;28;86916;-88
2023/11/20 08:45:32;;;;;;;7.25;3.33;;;21.60;59.30;;;;;;4934905;28;89063;-89
2023/11/20 08:48:00;;;;;;;9.57;2.80;;;21.60;59.60;;;;;;4934481;28;86927;-87
2023/11/20 08:50:25;;;;;;;9.05;3.05;;;21.60;59.60;;;;;;4937787;28;87885;-87
2023/11/20 08:52:55;;;;;;;9.52;3.15;;;21.50;59.70;;;;;;4939716;28;87773;-89
2023/11/20 08:55:20;;;;;;;5.57;2.70;;;21.50;59.80;;;;;;4927316;28;90109;-89
2023/11/20 08:57:46;;;;;;;7.22;2.97;;;21.60;59.80;;;;;;4940113;28;88280;-88
2023/11/20 09:00:14;;;;;;;7.45;3.40;;;21.60;59.80;;;;;;4937216;28;88424;-89
2023/11/20 09:02:42;;;;;;;6.40;2.58;;;21.60;59.90;;;;;;4935443;28;88261;-87
2023/11/20 09:05:10;;;;;;;10.55;3.15;;;21.60;60.10;;;;;;4936541;28;88349;-89
2023/11/20 09:07:36;;;;;;;9.13;3.22;;;21.60;60.00;;;;;;4934480;28;88537;-88
2023/11/20 09:10:04;;;;;;;10.88;3.13;;;21.60;59.50;;;;;;4935513;28;87398;-89
2023/11/20 09:12:30;;;;;;;6.00;3.00;;;21.60;60.10;;;;;;4937448;28;89277;-87
2023/11/20 09:14:56;;;;;;;8.15;3.15;;;21.60;59.90;;;;;;4934941;28;91099;-88
2023/11/20 09:17:21;;;;;;;10.27;3.88;;;21.60;60.20;;;;;;4935330;28;91503;-89
2023/11/20 09:19:48;;;;;;;5.03;2.38;;;21.60;60.30;;;;;;4933705;28;87293;-90
2023/11/20 09:22:14;;;;;;;7.15;2.58;;;21.50;60.20;;;;;;4918879;28;87784;-89
2023/11/20 09:24:40;;;;;;;6.45;3.25;;;21.50;60.20;;;;;;4930733;28;89042;-87
2023/11/20 09:27:10;;;;;;;6.07;2.97;;;21.60;60.10;;;;;;4934490;28;87623;-90
2023/11/20 09:29:39;;;;;;;5.40;2.95;;;21.60;60.20;;;;;;4936752;28;87260;-89
2023/11/20 09:32:05;;;;;;;5.75;2.45;;;21.60;60.10;;;;;;4940083;28;86696;-88
2023/11/20 09:34:34;;;;;;;9.52;3.33;;;21.60;60.10;;;;;;4937429;28;90067;-90
2023/11/20 09:36:59;;;;;;;8.13;3.00;;;21.60;60.30;;;;;;4941117;28;89928;-89
2023/11/20 09:39:25;;;;;;;8.00;2.65;;;21.60;60.00;;;;;;4943621;28;88454;-89
2023/11/20 09:41:51;;;;;;;7.10;2.92;;;21.60;60.10;;;;;;4942947;28;87274;-89
2023/11/20 09:44:24;;;;;;;10.93;3.25;;;21.60;60.00;;;;;;4942125;28;95679;-89
2023/11/20 09:46:52;;;;;;;7.15;2.25;;;21.60;60.20;;;;;;4942185;28;89144;-88
2023/11/20 09:49:25;;;;;;;8.00;3.00;;;21.60;59.90;;;;;;4943190;28;87109;-89
2023/11/20 09:51:52;;;;;;;6.65;2.50;;;21.60;59.90;;;;;;4944495;28;86971;-90
2023/11/20 09:54:18;;;;;;;8.02;2.92;;;21.60;60.10;;;;;;4943466;28;88948;-88
2023/11/20 09:56:44;;;;;;;6.50;2.70;;;21.60;59.70;;;;;;4945010;28;88775;-92
2023/11/20 09:59:13;;;;;;;4.20;2.20;;;21.60;60.10;;;;;;4945441;28;87229;-90
2023/11/20 10:01:48;;;;;;;6.13;2.67;;;21.60;59.70;;;;;;4943783;28;87683;-90
2023/11/20 10:04:18;;;;;;;6.65;2.75;;;21.60;59.70;;;;;;4942110;28;90280;-89
2023/11/20 10:06:45;;;;;;;8.32;2.22;;;21.70;59.60;;;;;;4942801;28;88300;-91
2023/11/20 10:09:12;;;;;;;5.25;2.28;;;21.70;59.30;;;;;;4940959;28;87099;-92
2023/11/20 10:11:40;;;;;;;7.65;2.58;;;21.70;59.40;;;;;;4941475;28;89048;-89
2023/11/20 10:19:18;;;;;;;5.53;2.60;;;21.80;59.60;;;;;;5210745;22;86927;-90
2023/11/20 10:34:41;;;;;;;5.43;2.42;;;21.90;59.90;;;;;;5418896;22;87999;-93
2023/11/20 10:37:11;;;;;;;4.95;2.75;;;21.90;59.80;;;;;;4945783;28;88427;-89
2023/11/20 10:39:38;;;;;;;5.82;2.47;;;21.90;60.30;;;;;;4933572;28;86920;-93
2023/11/20 10:42:09;;;;;;;4.53;2.00;;;21.90;59.90;;;;;;4940999;28;89473;-93
2023/11/20 10:44:38;;;;;;;7.40;2.80;;;21.90;59.70;;;;;;4950113;28;91000;-93
2023/11/20 10:47:06;;;;;;;4.90;2.33;;;21.90;60.00;;;;;;4939666;28;89927;-93
2023/11/20 10:49:33;;;;;;;12.27;3.57;;;21.90;60.10;;;;;;4918463;28;88333;-94
2023/11/20 10:52:05;;;;;;;8.70;3.03;;;21.90;60.50;;;;;;4938877;28;88676;-94
2023/11/20 10:54:49;;;;;;;7.95;2.83;;;21.90;60.40;;;;;;4931360;28;90137;-93
2023/11/20 10:57:18;;;;;;;10.38;3.75;;;21.90;60.70;;;;;;4914014;28;90895;-92
2023/11/20 10:59:45;;;;;;;16.95;5.05;;;21.90;60.70;;;;;;4932121;28;87997;-95
2023/11/20 11:02:18;;;;;;;21.38;5.70;;;21.90;61.00;;;;;;4936554;28;87544;-94
2023/11/20 11:04:48;;;;;;;15.95;5.78;;;21.80;60.60;;;;;;4927498;28;90192;-92
2023/11/20 11:07:16;;;;;;;12.85;3.97;;;21.90;60.60;;;;;;4920652;28;88330;-94
2023/11/20 11:09:45;;;;;;;31.65;7.78;;;21.90;60.50;;;;;;4946888;28;87478;-94
2023/11/20 11:12:20;;;;;;;21.40;6.10;;;21.90;60.30;;;;;;4932694;28;86495;-93
2023/11/20 11:14:47;;;;;;;11.80;4.53;;;21.90;60.10;;;;;;4931401;28;88984;-93
2023/11/20 11:17:19;;;;;;;20.67;5.93;;;21.90;60.20;;;;;;4930100;28;89941;-93
2023/11/20 11:19:48;;;;;;;21.60;6.55;;;21.90;60.20;;;;;;4929338;28;88986;-93
2023/11/20 11:22:32;;;;;;;15.23;5.72;;;22.00;60.10;;;;;;4938688;28;87597;-95
2023/11/20 11:25:10;;;;;;;18.10;5.75;;;22.00;60.00;;;;;;4935011;28;91236;-93
2023/11/20 11:27:59;;;;;;;17.75;6.32;;;22.00;60.10;;;;;;4930561;28;87727;-94
2023/11/20 11:30:25;;;;;;;;;;;21.90;59.90;;;;;;4923528;28;87606;-94
2023/11/20 11:33:32;;;;;;;19.20;6.72;;;21.90;59.60;;;;;;4932563;28;89203;-94
2023/11/20 11:36:10;;;;;;;22.42;8.02;;;22.00;59.80;;;;;;4945079;28;93235;-93
2023/11/20 11:38:44;;;;;;;20.58;7.10;;;22.00;60.00;;;;;;4932892;28;90371;-94
2023/11/20 11:41:16;;;;;;;22.95;7.03;;;21.90;59.90;;;;;;4919432;28;87674;-94
2023/11/20 11:44:14;;;;;;;26.70;7.55;;;21.90;59.90;;;;;;4930960;28;89093;-94
2023/11/20 11:46:55;;;;;;;17.33;5.93;;;21.90;59.90;;;;;;4928656;28;90358;-94
2023/11/20 11:49:37;;;;;;;33.38;8.82;;;21.90;59.70;;;;;;4930118;28;90442;-94
2023/11/20 11:52:09;;;;;;;;;;;22.00;59.80;;;;;;4905904;28;87658;-92
2023/11/20 11:54:35;;;;;;;24.05;6.93;;;21.90;59.80;;;;;;4929278;28;91704;-93
2023/11/20 11:57:21;;;;;;;22.65;7.07;;;21.90;59.60;;;;;;4905357;28;88884;-93
2023/11/20 11:59:53;;;;;;;30.23;8.23;;;21.90;59.70;;;;;;4932904;28;89643;-92
2023/11/20 12:02:54;;;;;;;22.40;6.90;;;22.00;59.60;;;;;;4911089;28;87728;-96
2023/11/20 12:05:21;;;;;;;25.85;7.53;;;22.00;59.70;;;;;;4935672;28;92270;-92
2023/11/20 12:07:49;;;;;;;20.65;6.32;;;22.00;59.70;;;;;;4924957;28;89829;-94
2023/11/20 12:10:16;;;;;;;21.77;6.20;;;22.00;59.70;;;;;;4942414;28;88523;-94
2023/11/20 12:12:48;;;;;;;23.02;7.63;;;22.00;59.80;;;;;;4935381;28;88341;-94
2023/11/20 12:15:38;;;;;;;18.38;7.40;;;21.90;59.70;;;;;;4926644;28;87541;-93
2023/11/20 12:18:24;;;;;;;21.85;6.68;;;21.90;59.50;;;;;;4934336;28;89005;-95
2023/11/20 12:20:51;;;;;;;25.13;7.15;;;21.90;59.90;;;;;;4927839;28;88570;-93
2023/11/20 12:23:27;;;;;;;17.42;5.95;;;21.90;60.00;;;;;;4927499;28;87599;-93
2023/11/20 12:25:53;;;;;;;25.80;7.90;;;22.00;59.80;;;;;;4932662;28;87501;-94
2023/11/20 12:28:21;;;;;;;21.40;7.45;;;21.90;59.60;;;;;;4925528;28;87675;-94
2023/11/20 12:30:47;;;;;;;20.85;7.28;;;22.00;59.60;;;;;;4932181;28;90060;-93
2023/11/20 12:33:13;;;;;;;19.75;5.85;;;22.00;59.50;;;;;;4940087;28;87442;-95
2023/11/20 12:35:39;;;;;;;20.08;6.72;;;22.00;60.10;;;;;;4941817;28;89018;-94
2023/11/20 12:38:06;;;;;;;19.15;6.85;;;22.00;59.60;;;;;;4923732;28;91633;-94
2023/11/20 12:40:32;;;;;;;19.60;7.72;;;22.00;59.60;;;;;;4928075;28;89436;-94
2023/11/20 12:42:58;;;;;;;17.38;6.78;;;22.00;59.30;;;;;;4915682;28;87483;-95
2023/11/20 12:45:24;;;;;;;21.35;7.45;;;22.00;59.40;;;;;;4911229;28;87540;-95
2023/11/20 12:47:50;;;;;;;16.92;7.10;;;21.90;59.40;;;;;;4929968;28;90684;-95
2023/11/20 12:50:29;;;;;;;18.75;6.93;;;22.00;59.40;;;;;;4933418;28;89807;-94
2023/11/20 12:52:55;;;;;;;16.42;7.10;;;21.90;59.50;;;;;;4926203;28;87494;-95
2023/11/20 12:55:21;;;;;;;21.77;6.93;;;22.00;59.40;;;;;;4925916;28;91559;-93
2023/11/20 12:57:47;;;;;;;19.55;6.80;;;22.00;59.60;;;;;;4932382;28;88349;-93
2023/11/20 13:00:18;;;;;;;19.45;6.70;;;22.00;59.70;;;;;;4927292;28;90261;-95
2023/11/20 13:02:56;;;;;;;20.48;7.10;;;22.00;59.60;;;;;;4935651;28;88491;-92
2023/11/20 13:05:23;;;;;;;22.90;7.23;;;22.00;59.60;;;;;;4925936;28;90808;-94
2023/11/20 13:08:04;;;;;;;20.45;6.05;;;22.00;59.30;;;;;;4926354;28;88433;-94